createdAt,value
2023-04-15T00:02:38.759Z,3.87
2023-04-15T00:07:31.656Z,4.47
2023-04-15T00:12:24.231Z,5.63
2023-04-15T00:17:17.074Z,5.67
2023-04-15T00:22:11.381Z,6.90
2023-04-15T00:27:04.321Z,4.50
2023-04-15T00:31:57.925Z,5.60
2023-04-15T00:36:50.579Z,5.20
2023-04-15T00:41:45.567Z,6.57
2023-04-15T00:46:39.849Z,6.73
2023-04-15T00:51:33.595Z,7.43
2023-04-15T00:56:27.181Z,7.53
2023-04-15T01:01:22.557Z,4.77
2023-04-15T01:06:15.190Z,5.20
2023-04-15T01:11:08.695Z,4.07
2023-04-15T01:16:02.912Z,3.93
2023-04-15T01:20:57.297Z,8.57
2023-04-15T01:25:52.520Z,5.80
2023-04-15T01:30:45.142Z,11.30
2023-04-15T01:35:38.549Z,7.27
2023-04-15T01:40:31.117Z,8.23
2023-04-15T01:45:25.827Z,12.40
2023-04-15T01:50:18.959Z,4.43
2023-04-15T01:55:11.650Z,5.67
2023-04-15T02:00:04.796Z,6.00
2023-04-15T02:05:07.497Z,5.13
2023-04-15T02:10:00.149Z,4.20
2023-04-15T02:14:52.731Z,7.50
2023-04-15T02:19:45.312Z,6.33
2023-04-15T02:24:39.198Z,5.00
2023-04-15T02:29:32.600Z,4.73
2023-04-15T02:34:27.255Z,5.57
2023-04-15T02:39:20.107Z,9.23
2023-04-15T02:44:14.067Z,3.97
2023-04-15T02:49:06.864Z,5.57
2023-04-15T02:53:59.583Z,6.63
2023-04-15T02:58:52.259Z,8.03
2023-04-15T03:03:46.226Z,4.43
2023-04-15T03:08:38.886Z,8.40
2023-04-15T03:13:31.508Z,8.97
2023-04-15T03:18:26.586Z,3.90
2023-04-15T03:23:20.812Z,3.77
2023-04-15T03:28:15.105Z,3.20
2023-04-15T03:33:08.501Z,4.50
2023-04-15T03:38:02.012Z,8.13
2023-04-15T03:42:56.274Z,9.23
2023-04-15T03:47:49.717Z,6.93
2023-04-15T03:52:42.346Z,7.30
2023-04-15T03:57:38.069Z,6.30
2023-04-15T04:02:32.126Z,6.87
2023-04-15T04:07:24.936Z,10.60
2023-04-15T04:12:17.806Z,5.03
2023-04-15T04:17:10.589Z,7.10
2023-04-15T04:22:04.510Z,6.87
2023-04-15T04:26:57.636Z,4.57
2023-04-15T04:31:50.434Z,4.87
2023-04-15T04:36:43.002Z,7.00
2023-04-15T04:41:37.113Z,5.20
2023-04-15T04:46:29.787Z,8.70
2023-04-15T04:51:22.419Z,5.03
2023-04-15T04:56:15.016Z,4.53
2023-04-15T05:01:09.010Z,5.90
2023-04-15T05:06:03.092Z,4.27
2023-04-15T05:10:55.668Z,6.47
2023-04-15T05:15:48.320Z,10.93
2023-04-15T05:20:42.220Z,5.67
2023-04-15T05:25:34.866Z,7.23
2023-04-15T05:30:27.338Z,6.70
2023-04-15T05:35:20.064Z,5.40
2023-04-15T05:40:14.328Z,5.87
2023-04-15T05:45:09.251Z,8.57
2023-04-15T05:50:01.981Z,8.00
2023-04-15T05:54:54.528Z,5.73
2023-04-15T05:59:49.038Z,5.93
2023-04-15T06:04:42.097Z,7.37
2023-04-15T06:09:34.721Z,7.60
2023-04-15T06:14:27.430Z,7.33
2023-04-15T06:19:21.355Z,4.77
2023-04-15T06:24:13.984Z,9.00
2023-04-15T06:29:06.865Z,6.90
2023-04-15T06:33:59.571Z,6.90
2023-04-15T06:38:53.710Z,10.13
2023-04-15T06:43:46.302Z,8.57
2023-04-15T06:48:38.941Z,6.23
2023-04-15T06:53:31.493Z,8.93
2023-04-15T06:58:25.822Z,9.13
2023-04-15T07:03:18.979Z,8.60
2023-04-15T07:08:12.260Z,5.30
2023-04-15T07:13:05.180Z,6.80
2023-04-15T07:17:59.085Z,6.80
2023-04-15T07:22:51.720Z,5.87
2023-04-15T07:27:44.236Z,13.93
2023-04-15T07:32:37.203Z,33.10
2023-04-15T07:37:31.360Z,8.90
2023-04-15T07:42:26.412Z,7.17
2023-04-15T07:47:21.129Z,7.93
2023-04-15T07:52:14.418Z,13.30
2023-04-15T07:57:08.868Z,8.60
2023-04-15T08:02:01.668Z,6.70
2023-04-15T08:06:54.772Z,9.17
2023-04-15T08:11:47.757Z,10.03
2023-04-15T08:16:41.765Z,7.87
2023-04-15T08:21:35.629Z,8.57
2023-04-15T08:26:28.241Z,8.37
2023-04-15T08:31:21.024Z,8.27
2023-04-15T08:36:15.502Z,7.70
2023-04-15T08:41:09.581Z,10.80
2023-04-15T08:46:02.664Z,6.50
2023-04-15T08:50:56.025Z,7.67
2023-04-15T08:55:53.019Z,7.40
2023-04-15T09:00:45.908Z,5.77
2023-04-15T09:05:39.128Z,4.83
2023-04-15T09:10:32.288Z,8.60
2023-04-15T09:15:27.419Z,5.30
2023-04-15T09:20:20.039Z,5.83
2023-04-15T09:25:28.040Z,7.10
2023-04-15T09:30:21.248Z,4.50
2023-04-15T09:35:15.429Z,6.20
2023-04-15T09:40:09.983Z,8.00
2023-04-15T09:45:09.316Z,3.93
2023-04-15T09:50:02.324Z,5.37
2023-04-15T09:54:57.028Z,7.33
2023-04-15T09:59:49.688Z,4.03
2023-04-15T10:04:42.905Z,5.23
2023-04-15T10:09:36.505Z,7.63
2023-04-15T10:14:33.631Z,4.00
2023-04-15T10:19:27.418Z,8.57
2023-04-15T10:24:20.238Z,5.13
2023-04-15T10:29:12.909Z,4.60
2023-04-15T10:34:07.376Z,3.40
2023-04-15T10:38:59.897Z,5.40
2023-04-15T10:43:53.398Z,4.60
2023-04-15T10:48:50.220Z,4.17
2023-04-15T10:53:44.214Z,5.13
2023-04-15T10:58:42.383Z,4.03
2023-04-15T11:03:39.336Z,5.47
2023-04-15T11:08:56.078Z,5.00
2023-04-15T11:13:50.900Z,6.07
2023-04-15T11:18:43.666Z,2.97
2023-04-15T11:23:37.985Z,4.80
2023-04-15T11:28:31.280Z,5.00
2023-04-15T11:33:25.917Z,3.07
2023-04-15T11:38:18.719Z,5.80
2023-04-15T11:43:12.307Z,3.40
2023-04-15T11:48:08.978Z,5.50
2023-04-15T11:53:06.246Z,3.53
2023-04-15T11:58:10.349Z,6.30
2023-04-15T12:03:15.958Z,4.73
2023-04-15T12:08:10.108Z,6.53
2023-04-15T12:13:02.669Z,4.20
2023-04-15T12:17:55.653Z,4.00
2023-04-15T12:22:48.723Z,3.87
2023-04-15T12:27:42.739Z,6.50
2023-04-15T12:32:36.447Z,4.87
2023-04-15T12:37:29.029Z,5.67
2023-04-15T12:42:22.514Z,7.60
2023-04-15T12:47:16.411Z,3.63
2023-04-15T12:52:09.023Z,10.13
2023-04-15T12:57:04.706Z,4.93
2023-04-15T13:02:00.806Z,3.47
2023-04-15T13:06:57.586Z,4.23
2023-04-15T13:11:50.710Z,6.03
2023-04-15T13:16:43.239Z,4.87
2023-04-15T13:21:36.358Z,4.60
2023-04-15T13:26:31.294Z,4.57
2023-04-15T13:31:23.909Z,4.50
2023-04-15T13:36:16.596Z,7.20
2023-04-15T13:41:09.174Z,7.30
2023-04-15T13:46:03.433Z,5.23
2023-04-15T13:50:56.056Z,4.80
2023-04-15T13:55:48.626Z,6.13
2023-04-15T14:00:41.463Z,4.40
2023-04-15T14:05:35.425Z,4.73
2023-04-15T14:10:28.053Z,4.90
2023-04-15T14:15:20.762Z,6.20
2023-04-15T14:20:15.094Z,11.87
2023-04-15T14:25:17.246Z,7.63
2023-04-15T14:30:16.079Z,7.50
2023-04-15T14:35:11.119Z,5.73
2023-04-15T14:40:03.757Z,7.73
2023-04-15T14:44:57.853Z,6.47
2023-04-15T14:49:50.743Z,6.60
2023-04-15T14:54:43.301Z,8.70
2023-04-15T14:59:35.871Z,5.47
2023-04-15T15:04:30.054Z,9.03
2023-04-15T15:09:23.806Z,8.80
2023-04-15T15:14:16.499Z,6.40
2023-04-15T15:19:09.085Z,7.93
2023-04-15T15:24:02.990Z,8.23
2023-04-15T15:28:55.818Z,4.70
2023-04-15T15:33:48.620Z,7.27
2023-04-15T15:38:41.538Z,5.10
2023-04-15T15:43:35.539Z,4.83
2023-04-15T15:48:28.470Z,6.37
2023-04-15T15:53:24.212Z,10.37
2023-04-15T15:58:16.719Z,6.40
2023-04-15T16:03:10.749Z,14.63
2023-04-15T16:08:03.565Z,13.10
2023-04-15T16:12:56.204Z,7.20
2023-04-15T16:17:48.905Z,7.40
2023-04-15T16:22:42.826Z,6.47
2023-04-15T16:27:43.497Z,8.43
2023-04-15T16:32:47.359Z,7.93
2023-04-15T16:37:40.311Z,5.57
2023-04-15T16:42:34.792Z,8.27
2023-04-15T16:47:27.436Z,8.43
2023-04-15T16:52:20.180Z,5.90
2023-04-15T16:57:12.801Z,7.00
2023-04-15T17:02:06.709Z,4.97
2023-04-15T17:06:59.285Z,8.83
2023-04-15T17:11:51.938Z,8.47
2023-04-15T17:16:44.568Z,6.70
2023-04-15T17:21:38.563Z,4.17
2023-04-15T17:26:31.103Z,6.73
2023-04-15T17:31:23.813Z,6.50
2023-04-15T17:36:16.401Z,9.90
2023-04-15T17:41:10.667Z,4.13
2023-04-15T17:46:03.417Z,3.37
2023-04-15T17:50:56.033Z,10.63
2023-04-15T17:55:50.268Z,3.00
2023-04-15T18:00:44.449Z,2.93
2023-04-15T18:05:37.133Z,3.03
2023-04-15T18:10:29.798Z,3.77
2023-04-15T18:15:22.483Z,3.23
2023-04-15T18:20:16.514Z,2.17
2023-04-15T18:25:09.473Z,2.60
2023-04-15T18:30:02.221Z,3.53
2023-04-15T18:34:55.531Z,3.20
2023-04-15T18:39:49.579Z,2.83
2023-04-15T18:44:45.274Z,4.90
2023-04-15T18:49:37.951Z,3.10
2023-04-15T18:54:30.700Z,4.60
2023-04-15T18:59:30.210Z,3.47
2023-04-15T19:04:23.572Z,3.00
2023-04-15T19:09:16.863Z,4.03
2023-04-15T19:14:09.379Z,3.83
2023-04-15T19:19:03.558Z,3.80
2023-04-15T19:23:56.903Z,4.00
2023-04-15T19:28:49.658Z,4.13
2023-04-15T19:33:42.250Z,3.87
2023-04-15T19:38:37.280Z,4.40
2023-04-15T19:43:29.971Z,11.90
2023-04-15T19:48:23.350Z,11.27
2023-04-15T19:53:16.028Z,5.87
2023-04-15T19:58:09.943Z,5.10
2023-04-15T20:03:02.585Z,12.73
2023-04-15T20:07:55.264Z,18.37
2023-04-15T20:12:51.545Z,7.80
2023-04-15T20:17:46.669Z,8.33
2023-04-15T20:22:39.257Z,7.47
2023-04-15T20:27:32.884Z,8.63
2023-04-15T20:32:26.850Z,9.70
2023-04-15T20:37:21.115Z,11.47
2023-04-15T20:42:13.709Z,10.03
2023-04-15T20:47:08.535Z,10.23
2023-04-15T20:52:08.265Z,12.93
2023-04-15T20:57:05.648Z,12.07
2023-04-15T21:01:58.267Z,10.10
2023-04-15T21:06:51.838Z,11.70
2023-04-15T21:16:47.033Z,15.93
2023-04-15T21:21:39.755Z,13.20
2023-04-15T21:26:32.468Z,13.03
2023-04-15T21:31:25.286Z,12.60
2023-04-15T21:36:19.512Z,14.63
2023-04-15T21:41:12.291Z,15.47
2023-04-15T21:46:22.343Z,16.80
2023-04-15T21:51:16.394Z,16.17
2023-04-15T21:56:10.384Z,17.20
2023-04-15T22:01:03.020Z,20.40
2023-04-15T22:05:55.827Z,21.00
2023-04-15T22:10:48.351Z,21.80
2023-04-15T22:15:42.545Z,23.80
2023-04-15T22:20:35.150Z,25.60
2023-04-15T22:25:27.750Z,28.37
2023-04-15T22:30:20.457Z,34.70
2023-04-15T22:35:14.312Z,32.63
2023-04-15T22:40:07.477Z,41.73
2023-04-15T22:45:00.107Z,41.70
2023-04-15T22:49:52.770Z,41.43
2023-04-15T22:54:46.753Z,38.53
2023-04-15T22:59:39.264Z,41.57
2023-04-15T23:04:32.039Z,47.37
2023-04-15T23:09:25.112Z,46.33
2023-04-15T23:14:18.987Z,44.77
2023-04-15T23:19:11.758Z,48.87
2023-04-15T23:24:04.680Z,49.80
2023-04-15T23:28:57.275Z,51.73
2023-04-15T23:33:51.291Z,51.90
2023-04-15T23:38:43.797Z,48.23
2023-04-15T23:43:36.609Z,52.63
2023-04-15T23:48:30.285Z,55.33
2023-04-15T23:53:24.200Z,51.43
2023-04-15T23:58:16.713Z,55.30
